createdAt,value
2023-06-28T00:00:21.821Z,93510.88
2023-06-28T00:01:18.908Z,93515.91
2023-06-28T00:02:15.614Z,93518.94
2023-06-28T00:03:14.668Z,93525.88
2023-06-28T00:04:11.287Z,93519.69
2023-06-28T00:05:10.934Z,93513.56
2023-06-28T00:06:07.560Z,93516.22
2023-06-28T00:07:04.755Z,93520.84
2023-06-28T00:08:01.764Z,93518.56
2023-06-28T00:08:59.380Z,93516.63
2023-06-28T00:09:55.860Z,93512.03
2023-06-28T00:10:52.578Z,93516.25
2023-06-28T00:11:49.090Z,93517.38
2023-06-28T00:12:45.601Z,93519.72
2023-06-28T00:13:42.179Z,93518.19
2023-06-28T00:14:38.696Z,93516.97
2023-06-28T00:15:35.271Z,93511.59
2023-06-28T00:16:31.735Z,93509.25
2023-06-28T00:17:31.380Z,93516.97
2023-06-28T00:18:30.693Z,93514.66
2023-06-28T00:19:29.966Z,93514.28
2023-06-28T00:20:26.439Z,93507.72
2023-06-28T00:21:24.108Z,93511.56
2023-06-28T00:22:20.666Z,93516.94
2023-06-28T00:23:17.295Z,93514.25
2023-06-28T00:24:13.966Z,93518.84
2023-06-28T00:25:10.521Z,93518.03
2023-06-28T00:26:07.031Z,93519.19
2023-06-28T00:27:03.680Z,93519.59
2023-06-28T00:28:00.203Z,93515.38
2023-06-28T00:28:56.903Z,93519.22
2023-06-28T00:29:53.494Z,93510.38
2023-06-28T00:30:50.006Z,93518.84
2023-06-28T00:31:46.595Z,93521.56
2023-06-28T00:32:43.274Z,93512.69
2023-06-28T00:33:39.990Z,93510.44
2023-06-28T00:34:36.706Z,93347.00
2023-06-28T00:35:33.327Z,93507.38
2023-06-28T00:36:29.876Z,93508.91
2023-06-28T00:37:26.922Z,93515.44
2023-06-28T00:38:23.910Z,93517.78
2023-06-28T00:39:20.404Z,93513.53
2023-06-28T00:40:16.921Z,93512.38
2023-06-28T00:41:13.469Z,93438.13
2023-06-28T00:42:10.126Z,93519.66
2023-06-28T00:43:06.628Z,93513.47
2023-06-28T00:44:03.802Z,93512.69
2023-06-28T00:45:00.663Z,93513.44
2023-06-28T00:45:57.188Z,93508.81
2023-06-28T00:46:54.101Z,93515.31
2023-06-28T00:47:50.728Z,93514.56
2023-06-28T00:48:47.521Z,93515.72
2023-06-28T00:49:44.207Z,93514.97
2023-06-28T00:50:41.264Z,93513.78
2023-06-28T00:51:38.570Z,93516.47
2023-06-28T00:52:35.159Z,93510.31
2023-06-28T00:53:31.759Z,93513.78
2023-06-28T00:54:28.459Z,93514.56
2023-06-28T00:55:25.038Z,93513.00
2023-06-28T00:56:21.563Z,93516.47
2023-06-28T00:57:18.662Z,93512.28
2023-06-28T00:58:15.443Z,93514.19
2023-06-28T00:59:12.485Z,93513.00
2023-06-28T01:00:13.601Z,93509.97
2023-06-28T01:01:11.832Z,93500.75
2023-06-28T01:02:08.531Z,93502.69
2023-06-28T01:03:05.580Z,93508.09
2023-06-28T01:04:04.105Z,93500.06
2023-06-28T01:05:00.728Z,93504.69
2023-06-28T01:05:58.863Z,93504.31
2023-06-28T01:07:00.914Z,93503.53
2023-06-28T01:07:57.895Z,93506.56
2023-06-28T01:08:54.585Z,93506.59
2023-06-28T01:09:51.310Z,93505.44
2023-06-28T01:10:48.516Z,93509.66
2023-06-28T01:11:45.005Z,93505.81
2023-06-28T01:12:42.198Z,93516.16
2023-06-28T01:13:39.179Z,93516.50
2023-06-28T01:14:35.813Z,93512.66
2023-06-28T01:15:32.379Z,93504.97
2023-06-28T01:16:28.992Z,93508.44
2023-06-28T01:17:25.529Z,93498.84
2023-06-28T01:18:22.699Z,93506.53
2023-06-28T01:19:19.362Z,93505.78
2023-06-28T01:20:16.280Z,93509.69
2023-06-28T01:21:15.652Z,93512.00
2023-06-28T01:22:13.858Z,93508.88
2023-06-28T01:23:10.496Z,93514.66
2023-06-28T01:24:11.784Z,93510.78
2023-06-28T01:25:10.549Z,93517.69
2023-06-28T01:26:08.766Z,93514.25
2023-06-28T01:27:06.610Z,93514.25
2023-06-28T01:28:03.778Z,93515.00
2023-06-28T01:29:00.323Z,93506.53
2023-06-28T01:29:58.271Z,93510.31
2023-06-28T01:30:55.176Z,93509.59
2023-06-28T01:31:56.234Z,93512.63
2023-06-28T01:32:53.543Z,93510.38
2023-06-28T01:33:50.153Z,93508.84
2023-06-28T01:34:46.693Z,93506.50
2023-06-28T01:35:43.228Z,93506.47
2023-06-28T01:36:39.749Z,93507.63
2023-06-28T01:37:36.789Z,93504.25
2023-06-28T01:38:33.418Z,93506.19
2023-06-28T01:39:32.024Z,93506.59
2023-06-28T01:40:29.002Z,93506.19
2023-06-28T01:41:27.688Z,93512.31
2023-06-28T01:42:24.327Z,93508.50
2023-06-28T01:43:21.591Z,93506.16
2023-06-28T01:44:18.510Z,93512.59
2023-06-28T01:45:15.068Z,93508.81
2023-06-28T01:46:11.976Z,93505.00
2023-06-28T01:47:08.665Z,93515.75
2023-06-28T01:48:05.513Z,93508.44
2023-06-28T01:49:02.526Z,93508.44
2023-06-28T01:49:59.402Z,93510.72
2023-06-28T01:50:56.000Z,93509.97
2023-06-28T01:51:54.148Z,93507.63
2023-06-28T01:52:50.763Z,93509.13
2023-06-28T01:53:47.398Z,93508.00
2023-06-28T01:54:44.312Z,93509.84
2023-06-28T01:55:40.862Z,93515.50
2023-06-28T01:56:37.464Z,93511.66
2023-06-28T01:57:33.940Z,93519.72
2023-06-28T01:58:30.464Z,93514.41
2023-06-28T01:59:27.100Z,93510.56
2023-06-28T02:00:23.786Z,93514.41
2023-06-28T02:01:20.303Z,93522.13
2023-06-28T02:02:17.516Z,93515.22
2023-06-28T02:03:14.290Z,93510.69
2023-06-28T02:04:10.857Z,93515.59
2023-06-28T02:05:07.582Z,93514.47
2023-06-28T02:06:04.155Z,93521.78
2023-06-28T02:07:00.764Z,93517.13
2023-06-28T02:07:57.334Z,93519.41
2023-06-28T02:08:53.884Z,93527.09
2023-06-28T02:09:50.433Z,93524.03
2023-06-28T02:10:46.922Z,93517.16
2023-06-28T02:11:43.412Z,93530.53
2023-06-28T02:12:39.998Z,93524.81
2023-06-28T02:13:36.648Z,93524.91
2023-06-28T02:14:33.151Z,93524.47
2023-06-28T02:15:29.638Z,93526.78
2023-06-28T02:16:28.890Z,93519.81
2023-06-28T02:17:25.616Z,93525.56
2023-06-28T02:18:25.981Z,93526.38
2023-06-28T02:19:22.638Z,93520.19
2023-06-28T02:20:20.325Z,93518.22
2023-06-28T02:21:17.456Z,93522.81
2023-06-28T02:22:13.994Z,93528.25
2023-06-28T02:23:11.309Z,93526.41
2023-06-28T02:24:09.317Z,93524.56
2023-06-28T02:25:07.447Z,93526.44
2023-06-28T02:26:03.953Z,93525.97
2023-06-28T02:27:00.546Z,93534.75
2023-06-28T02:27:57.127Z,93533.63
2023-06-28T02:28:54.302Z,93532.09
2023-06-28T02:29:50.947Z,93530.56
2023-06-28T02:30:49.360Z,93529.00
2023-06-28T02:31:46.613Z,93526.28
2023-06-28T02:32:44.355Z,93530.06
2023-06-28T02:33:41.005Z,93531.59
2023-06-28T02:34:37.492Z,93523.53
2023-06-28T02:35:33.992Z,93525.44
2023-06-28T02:36:30.524Z,93527.31
2023-06-28T02:37:27.028Z,93528.91
2023-06-28T02:38:23.551Z,93521.28
2023-06-28T02:39:20.062Z,93525.91
2023-06-28T02:40:16.559Z,93531.59
2023-06-28T02:41:13.323Z,93524.38
2023-06-28T02:42:09.866Z,93521.31
2023-06-28T02:43:06.440Z,93530.16
2023-06-28T02:44:02.918Z,93526.31
2023-06-28T02:44:59.418Z,93520.19
2023-06-28T02:45:55.937Z,93523.63
2023-06-28T02:46:52.465Z,93522.41
2023-06-28T02:47:49.147Z,93524.00
2023-06-28T02:48:45.702Z,93520.25
2023-06-28T02:49:42.452Z,93522.78
2023-06-28T02:50:38.923Z,93518.91
2023-06-28T02:51:35.432Z,93518.84
2023-06-28T02:52:31.957Z,93515.38
2023-06-28T02:53:28.495Z,93512.34
2023-06-28T02:54:25.013Z,93521.22
2023-06-28T02:55:21.701Z,93513.94
2023-06-28T02:56:18.278Z,93520.88
2023-06-28T02:57:14.936Z,93521.28
2023-06-28T02:58:11.546Z,93516.28
2023-06-28T02:59:08.078Z,93520.09
2023-06-28T03:00:04.808Z,93530.47
2023-06-28T03:01:01.547Z,93520.13
2023-06-28T03:01:58.174Z,93525.56
2023-06-28T03:02:54.944Z,93524.78
2023-06-28T03:03:51.573Z,93525.72
2023-06-28T03:04:48.231Z,93527.69
2023-06-28T03:05:44.766Z,93528.03
2023-06-28T03:06:41.518Z,93526.06
2023-06-28T03:07:38.275Z,93535.22
2023-06-28T03:08:35.080Z,93536.38
2023-06-28T03:09:31.628Z,93537.16
2023-06-28T03:10:28.147Z,93535.22
2023-06-28T03:11:24.643Z,93538.66
2023-06-28T03:12:21.364Z,93537.56
2023-06-28T03:13:17.901Z,93538.69
2023-06-28T03:14:14.450Z,93543.34
2023-06-28T03:15:11.130Z,93537.16
2023-06-28T03:16:09.270Z,93535.69
2023-06-28T03:17:06.597Z,93531.84
2023-06-28T03:18:03.399Z,93534.13
2023-06-28T03:18:59.994Z,93532.22
2023-06-28T03:19:56.569Z,93538.38
2023-06-28T03:20:53.282Z,93535.22
2023-06-28T03:21:49.833Z,93532.47
2023-06-28T03:22:46.324Z,93536.31
2023-06-28T03:23:43.077Z,93532.84
2023-06-28T03:24:39.710Z,93540.47
2023-06-28T03:25:36.386Z,93535.06
2023-06-28T03:26:32.983Z,93535.00
2023-06-28T03:27:29.527Z,93532.59
2023-06-28T03:28:26.153Z,93523.72
2023-06-28T03:29:22.685Z,93533.75
2023-06-28T03:30:19.268Z,93525.72
2023-06-28T03:31:15.780Z,93529.94
2023-06-28T03:32:12.527Z,93525.41
2023-06-28T03:33:09.051Z,93520.78
2023-06-28T03:34:05.819Z,93525.41
2023-06-28T03:35:02.302Z,93517.41
2023-06-28T03:35:58.827Z,93526.22
2023-06-28T03:37:03.926Z,93525.13
2023-06-28T03:38:01.744Z,93526.38
2023-06-28T03:38:58.432Z,93525.63
2023-06-28T03:39:54.927Z,93536.00
2023-06-28T03:40:51.472Z,93534.88
2023-06-28T03:41:48.047Z,93530.34
2023-06-28T03:42:44.595Z,93533.03
2023-06-28T03:43:41.358Z,93540.34
2023-06-28T03:44:37.886Z,93540.31
2023-06-28T03:45:35.030Z,93531.47
2023-06-28T03:46:31.612Z,93540.69
2023-06-28T03:47:28.409Z,93538.41
2023-06-28T03:48:24.953Z,93531.50
2023-06-28T03:49:21.513Z,93532.59
2023-06-28T03:50:18.106Z,93533.31
2023-06-28T03:51:14.606Z,93541.00
2023-06-28T03:52:11.352Z,93538.72
2023-06-28T03:53:07.990Z,93536.03
2023-06-28T03:54:04.722Z,93548.72
2023-06-28T03:55:01.220Z,93535.66
2023-06-28T03:55:58.830Z,93539.88
2023-06-28T03:56:55.430Z,93545.25
2023-06-28T03:57:52.136Z,93545.63
2023-06-28T03:58:50.876Z,93540.25
2023-06-28T03:59:47.362Z,93534.88
2023-06-28T04:00:44.147Z,93531.38
2023-06-28T04:01:40.909Z,93531.72
2023-06-28T04:02:37.656Z,93530.59
2023-06-28T04:03:34.403Z,93532.53
2023-06-28T04:04:31.337Z,93539.81
2023-06-28T04:05:28.013Z,93535.63
2023-06-28T04:06:24.591Z,93527.97
2023-06-28T04:07:26.176Z,93532.97
2023-06-28T04:08:27.770Z,93530.28
2023-06-28T04:09:24.374Z,93521.84
2023-06-28T04:10:21.484Z,93528.00
2023-06-28T04:11:18.006Z,93531.09
2023-06-28T04:12:14.519Z,93532.22
2023-06-28T04:13:11.422Z,93539.53
2023-06-28T04:14:08.131Z,93538.81
2023-06-28T04:15:07.576Z,93534.59
2023-06-28T04:16:04.249Z,93527.75
2023-06-28T04:17:01.078Z,93535.81
2023-06-28T04:17:57.741Z,93531.63
2023-06-28T04:18:54.474Z,93533.19
2023-06-28T04:19:50.971Z,93538.94
2023-06-28T04:20:47.545Z,93536.63
2023-06-28T04:21:44.050Z,93544.38
2023-06-28T04:22:40.686Z,93542.44
2023-06-28T04:23:39.401Z,93545.91
2023-06-28T04:24:36.014Z,93538.97
2023-06-28T04:25:32.589Z,93538.22
2023-06-28T04:26:29.221Z,93543.63
2023-06-28T04:27:26.698Z,93538.59
2023-06-28T04:28:23.257Z,93537.44
2023-06-28T04:29:21.529Z,93533.16
2023-06-28T04:30:19.600Z,93538.53
2023-06-28T04:31:16.219Z,93548.16
2023-06-28T04:32:26.371Z,93548.94
2023-06-28T04:33:23.823Z,93539.72
2023-06-28T04:34:20.950Z,93545.88
2023-06-28T04:35:18.552Z,93541.25
2023-06-28T04:36:15.146Z,93543.16
2023-06-28T04:37:15.908Z,93544.69
2023-06-28T04:38:14.440Z,93544.28
2023-06-28T04:39:11.053Z,93544.28
2023-06-28T04:40:09.071Z,93549.66
2023-06-28T04:41:06.823Z,93544.63
2023-06-28T04:42:04.406Z,93550.75
2023-06-28T04:43:01.000Z,93551.19
2023-06-28T04:43:58.843Z,93545.75
2023-06-28T04:45:00.717Z,93556.53
2023-06-28T04:45:58.043Z,93551.94
2023-06-28T04:46:54.600Z,93557.69
2023-06-28T04:47:51.144Z,93555.38
2023-06-28T04:48:47.673Z,93555.41
2023-06-28T04:49:46.539Z,93566.94
2023-06-28T04:50:43.511Z,93561.88
2023-06-28T04:51:40.165Z,93564.19
2023-06-28T04:52:36.658Z,93561.47
2023-06-28T04:53:33.187Z,93555.97
2023-06-28T04:54:29.807Z,93562.09
2023-06-28T04:55:26.410Z,93563.63
2023-06-28T04:56:22.980Z,93555.09
2023-06-28T04:57:21.929Z,93558.44
2023-06-28T04:58:19.104Z,93559.28
2023-06-28T04:59:15.587Z,93555.31
2023-06-28T05:00:12.820Z,93562.69
2023-06-28T05:01:09.833Z,93560.72
2023-06-28T05:02:06.648Z,93563.69
2023-06-28T05:03:03.470Z,93569.50
2023-06-28T05:04:00.486Z,93560.66
2023-06-28T05:04:57.092Z,93561.38
2023-06-28T05:05:54.786Z,93562.09
2023-06-28T05:06:54.784Z,93560.22
2023-06-28T05:07:52.575Z,93561.88
2023-06-28T05:08:49.190Z,93563.06
2023-06-28T05:09:46.079Z,93557.25
2023-06-28T05:10:42.872Z,93558.06
2023-06-28T05:11:39.519Z,93557.25
2023-06-28T05:12:36.202Z,93562.84
2023-06-28T05:13:32.781Z,93555.66
2023-06-28T05:14:30.203Z,93557.63
2023-06-28T05:15:27.239Z,93558.13
2023-06-28T05:16:23.803Z,93561.50
2023-06-28T05:17:20.318Z,93562.56
2023-06-28T05:18:16.914Z,93562.50
2023-06-28T05:19:13.388Z,93560.16
2023-06-28T05:20:10.325Z,93565.97
2023-06-28T05:21:06.875Z,93564.88
2023-06-28T05:22:03.781Z,93565.75
2023-06-28T05:23:13.981Z,93564.13
2023-06-28T05:24:10.617Z,93558.75
2023-06-28T05:25:07.244Z,93563.16
2023-06-28T05:26:06.343Z,93565.03
2023-06-28T05:27:02.923Z,93569.69
2023-06-28T05:27:59.425Z,93561.84
2023-06-28T05:28:55.932Z,93555.28
2023-06-28T05:29:52.489Z,93560.34
2023-06-28T05:30:49.008Z,93551.97
2023-06-28T05:31:45.617Z,93557.00
2023-06-28T05:32:42.243Z,93553.38
2023-06-28T05:33:42.006Z,93551.75
2023-06-28T05:34:38.561Z,93558.53
2023-06-28T05:35:35.658Z,93556.66
2023-06-28T05:36:32.856Z,93559.47
2023-06-28T05:37:29.755Z,93557.31
2023-06-28T05:38:26.314Z,93554.34
2023-06-28T05:39:23.122Z,93558.72
2023-06-28T05:40:19.666Z,93552.81
2023-06-28T05:41:19.212Z,93554.22
2023-06-28T05:42:15.848Z,93555.69
2023-06-28T05:43:12.392Z,93552.44
2023-06-28T05:44:08.955Z,93558.75
2023-06-28T05:45:07.146Z,93561.84
2023-06-28T05:46:03.694Z,93562.38
2023-06-28T05:47:00.273Z,93559.44
2023-06-28T05:47:58.599Z,93565.63
2023-06-28T05:48:55.289Z,93567.34
2023-06-28T05:49:51.942Z,93566.66
2023-06-28T05:50:48.947Z,93491.47
2023-06-28T05:51:46.858Z,93565.94
2023-06-28T05:52:46.172Z,93564.31
2023-06-28T05:53:43.117Z,93562.56
2023-06-28T05:54:39.782Z,93556.03
2023-06-28T05:55:36.337Z,93562.06
2023-06-28T05:56:33.090Z,93568.91
2023-06-28T05:57:29.626Z,93567.91
2023-06-28T05:58:26.176Z,93572.06
2023-06-28T05:59:22.798Z,93573.09
2023-06-28T06:00:20.312Z,93582.63
2023-06-28T06:01:16.952Z,93574.88
2023-06-28T06:02:13.549Z,93576.09
2023-06-28T06:03:10.184Z,93568.06
2023-06-28T06:04:06.998Z,93565.28
2023-06-28T06:05:04.773Z,93563.03
2023-06-28T06:06:01.840Z,93563.03
2023-06-28T06:06:58.418Z,93557.25
2023-06-28T06:07:54.984Z,93561.63
2023-06-28T06:08:51.469Z,93563.31
2023-06-28T06:09:48.103Z,93565.00
2023-06-28T06:10:44.771Z,93567.88
2023-06-28T06:11:41.937Z,93564.13
2023-06-28T06:12:38.764Z,93554.50
2023-06-28T06:13:35.650Z,93557.16
2023-06-28T06:14:33.661Z,93562.91
2023-06-28T06:15:30.256Z,93564.22
2023-06-28T06:16:26.793Z,93565.44
2023-06-28T06:17:23.312Z,93563.16
2023-06-28T06:18:19.838Z,93565.34
2023-06-28T06:19:16.403Z,93583.28
2023-06-28T06:20:16.314Z,93567.50
2023-06-28T06:21:12.860Z,93568.25
2023-06-28T06:22:09.352Z,93563.16
2023-06-28T06:23:05.974Z,93569.44
2023-06-28T06:24:02.979Z,93564.75
2023-06-28T06:24:59.478Z,93572.16
2023-06-28T06:25:56.072Z,93568.03
2023-06-28T06:26:52.646Z,93569.44
2023-06-28T06:27:49.210Z,93569.97
2023-06-28T06:28:46.095Z,93573.97
2023-06-28T06:29:42.656Z,93566.38
2023-06-28T06:30:40.421Z,93574.47
2023-06-28T06:31:38.266Z,93568.94
2023-06-28T06:32:34.891Z,93572.31
2023-06-28T06:33:31.577Z,93572.09
2023-06-28T06:34:28.121Z,93567.59
2023-06-28T06:35:25.241Z,93564.44
2023-06-28T06:36:21.757Z,93572.28
2023-06-28T06:37:18.266Z,93567.69
2023-06-28T06:38:14.852Z,93569.66
2023-06-28T06:39:11.392Z,93506.94
2023-06-28T06:40:08.511Z,93571.47
2023-06-28T06:41:05.216Z,93570.53
2023-06-28T06:42:01.832Z,93576.06
2023-06-28T06:42:58.337Z,93574.53
2023-06-28T06:43:54.862Z,93571.91
2023-06-28T06:44:51.331Z,93567.25
2023-06-28T06:45:48.072Z,93572.09
2023-06-28T06:46:44.840Z,93569.34
2023-06-28T06:47:41.366Z,93572.44
2023-06-28T06:48:38.931Z,93575.19
2023-06-28T06:49:35.501Z,93571.91
2023-06-28T06:50:32.201Z,93577.16
2023-06-28T06:51:28.814Z,93565.72
2023-06-28T06:52:25.292Z,93560.53
2023-06-28T06:53:21.958Z,93558.72
2023-06-28T06:54:18.491Z,93566.75
2023-06-28T06:55:15.068Z,93565.41
2023-06-28T06:56:11.665Z,93559.88
2023-06-28T06:57:08.192Z,93563.31
2023-06-28T06:58:05.253Z,93560.53
2023-06-28T06:59:02.265Z,93562.31
2023-06-28T06:59:58.828Z,93565.88
2023-06-28T07:00:55.399Z,93567.69
2023-06-28T07:01:52.609Z,93569.31
2023-06-28T07:02:49.390Z,93573.34
2023-06-28T07:03:45.991Z,93562.19
2023-06-28T07:04:42.608Z,93562.00
2023-06-28T07:05:39.327Z,93568.59
2023-06-28T07:06:37.065Z,93555.72
2023-06-28T07:07:33.782Z,93558.00
2023-06-28T07:08:30.521Z,93555.88
2023-06-28T07:09:28.169Z,93566.03
2023-06-28T07:10:24.804Z,93560.47
2023-06-28T07:11:21.595Z,93561.84
2023-06-28T07:12:18.198Z,93559.69
2023-06-28T07:13:15.751Z,93558.69
2023-06-28T07:14:12.226Z,93562.19
2023-06-28T07:15:09.143Z,93554.97
2023-06-28T07:16:05.644Z,93561.16
2023-06-28T07:17:02.156Z,93558.41
2023-06-28T07:17:58.858Z,93557.69
2023-06-28T07:18:56.096Z,93552.28
2023-06-28T07:19:52.963Z,93558.16
2023-06-28T07:20:49.499Z,93556.06
2023-06-28T07:21:46.136Z,93561.28
2023-06-28T07:22:42.695Z,93561.81
2023-06-28T07:23:39.238Z,93558.25
2023-06-28T07:24:35.726Z,93563.94
2023-06-28T07:25:33.533Z,93560.94
2023-06-28T07:26:30.120Z,93557.47
2023-06-28T07:27:26.794Z,93557.53
2023-06-28T07:28:23.271Z,93556.94
2023-06-28T07:29:19.893Z,93557.56
2023-06-28T07:30:17.566Z,93556.06
2023-06-28T07:31:14.184Z,93559.53
2023-06-28T07:32:10.776Z,93556.09
2023-06-28T07:33:07.530Z,93561.28
2023-06-28T07:34:06.088Z,93556.56
2023-06-28T07:35:02.790Z,93555.19
2023-06-28T07:35:59.610Z,93553.88
2023-06-28T07:36:56.120Z,93560.97
2023-06-28T07:37:54.173Z,93558.56
2023-06-28T07:38:51.515Z,93559.38
2023-06-28T07:39:48.339Z,93555.16
2023-06-28T07:40:45.056Z,93550.63
2023-06-28T07:41:41.616Z,93552.38
2023-06-28T07:42:38.694Z,93551.22
2023-06-28T07:43:35.276Z,93558.84
2023-06-28T07:44:31.770Z,93554.47
2023-06-28T07:45:29.103Z,93554.84
2023-06-28T07:46:25.714Z,93554.81
2023-06-28T07:47:22.521Z,93551.88
2023-06-28T07:48:19.676Z,93554.81
2023-06-28T07:49:16.187Z,93557.31
2023-06-28T07:50:12.866Z,93560.75
2023-06-28T07:51:09.557Z,93555.78
2023-06-28T07:52:06.833Z,93559.31
2023-06-28T07:53:03.810Z,93560.00
2023-06-28T07:54:00.407Z,93557.66
2023-06-28T07:54:56.949Z,93555.22
2023-06-28T07:55:53.520Z,93550.59
2023-06-28T07:56:50.335Z,93549.88
2023-06-28T07:57:46.864Z,93554.69
2023-06-28T07:58:43.489Z,93555.81
2023-06-28T07:59:40.087Z,93553.19
2023-06-28T08:00:36.649Z,93555.34
2023-06-28T08:01:34.947Z,93548.31
2023-06-28T08:02:31.605Z,93553.22
2023-06-28T08:03:28.176Z,93550.59
2023-06-28T08:04:24.777Z,93549.56
2023-06-28T08:05:21.475Z,93553.13
2023-06-28T08:06:18.060Z,93557.72
2023-06-28T08:07:14.653Z,93553.28
2023-06-28T08:08:11.282Z,93552.72
2023-06-28T08:09:07.874Z,93555.75
2023-06-28T08:10:04.701Z,93557.91
2023-06-28T08:11:01.308Z,93548.78
2023-06-28T08:11:57.842Z,93550.00
2023-06-28T08:12:54.386Z,93549.38
2023-06-28T08:13:51.946Z,93546.84
2023-06-28T08:14:48.507Z,93545.72
2023-06-28T08:15:45.547Z,93546.94
2023-06-28T08:16:42.535Z,93547.84
2023-06-28T08:17:39.061Z,93538.03
2023-06-28T08:18:36.168Z,93542.16
2023-06-28T08:19:32.717Z,93541.69
2023-06-28T08:20:29.705Z,93540.88
2023-06-28T08:21:26.299Z,93547.25
2023-06-28T08:22:22.841Z,93538.88
2023-06-28T08:23:19.898Z,93549.94
2023-06-28T08:24:18.090Z,93539.16
2023-06-28T08:25:14.657Z,93558.03
2023-06-28T08:26:11.169Z,93488.34
2023-06-28T08:27:08.127Z,93550.63
2023-06-28T08:28:07.381Z,93544.44
2023-06-28T08:29:04.585Z,93544.75
2023-06-28T08:30:01.158Z,93539.97
2023-06-28T08:30:57.720Z,93544.47
2023-06-28T08:31:54.281Z,93540.66
2023-06-28T08:32:50.793Z,93542.19
2023-06-28T08:33:48.869Z,93540.53
2023-06-28T08:34:45.577Z,93543.66
2023-06-28T08:35:42.331Z,93544.38
2023-06-28T08:36:39.108Z,93539.16
2023-06-28T08:37:35.918Z,93548.19
2023-06-28T08:38:32.449Z,93549.28
2023-06-28T08:39:29.043Z,93540.34
2023-06-28T08:40:29.074Z,93544.81
2023-06-28T08:41:25.786Z,93539.16
2023-06-28T08:42:22.620Z,93538.88
2023-06-28T08:43:20.508Z,93539.25
2023-06-28T08:44:20.498Z,93546.00
2023-06-28T08:45:17.361Z,93540.47
2023-06-28T08:46:14.044Z,93544.91
2023-06-28T08:47:11.312Z,93547.16
2023-06-28T08:48:20.305Z,93541.63
2023-06-28T08:49:25.294Z,93532.69
2023-06-28T08:50:22.580Z,93540.81
2023-06-28T08:51:19.273Z,93532.81
2023-06-28T08:52:16.184Z,93534.19
2023-06-28T08:53:14.531Z,93538.56
2023-06-28T08:54:13.037Z,93540.16
2023-06-28T08:55:09.798Z,93548.91
2023-06-28T08:56:06.680Z,93533.22
2023-06-28T08:57:12.336Z,93530.91
2023-06-28T08:58:11.196Z,93531.47
2023-06-28T08:59:08.452Z,93540.66
2023-06-28T09:00:07.355Z,93535.00
2023-06-28T09:01:04.050Z,93536.75
2023-06-28T09:02:02.439Z,93538.50
2023-06-28T09:02:59.403Z,93535.75
2023-06-28T09:03:56.820Z,93540.97
2023-06-28T09:04:53.834Z,93537.66
2023-06-28T09:05:51.751Z,93538.75
2023-06-28T09:06:48.424Z,93535.13
2023-06-28T09:07:46.523Z,93540.34
2023-06-28T09:08:44.100Z,93536.53
2023-06-28T09:09:42.051Z,93538.81
2023-06-28T09:10:40.125Z,93533.56
2023-06-28T09:11:37.498Z,93534.50
2023-06-28T09:12:34.599Z,93539.94
2023-06-28T09:13:31.384Z,93532.88
2023-06-28T09:14:28.112Z,93540.16
2023-06-28T09:15:24.694Z,93543.94
2023-06-28T09:16:23.528Z,93534.13
2023-06-28T09:17:22.367Z,93537.19
2023-06-28T09:18:20.692Z,93532.47
2023-06-28T09:19:17.217Z,93537.28
2023-06-28T09:20:20.567Z,93532.34
2023-06-28T09:21:27.013Z,93531.56
2023-06-28T09:22:23.494Z,93529.53
2023-06-28T09:23:27.391Z,93533.34
2023-06-28T09:24:26.064Z,93530.53
2023-06-28T09:25:22.777Z,93526.06
2023-06-28T09:26:19.340Z,93523.38
2023-06-28T09:27:16.620Z,93521.09
2023-06-28T09:28:13.465Z,93529.41
2023-06-28T09:29:11.729Z,93524.47
2023-06-28T09:30:09.088Z,93531.06
2023-06-28T09:31:08.524Z,93533.44
2023-06-28T09:32:06.487Z,93526.38
2023-06-28T09:33:06.315Z,93533.56
2023-06-28T09:34:02.903Z,93534.75
2023-06-28T09:34:59.395Z,93530.47
2023-06-28T09:35:59.566Z,93541.06
2023-06-28T09:36:57.220Z,93532.91
2023-06-28T09:37:55.539Z,93534.41
2023-06-28T09:38:52.171Z,93526.78
2023-06-28T09:39:49.580Z,93532.13
2023-06-28T09:40:46.416Z,93532.56
2023-06-28T09:41:43.914Z,93534.41
2023-06-28T09:42:45.199Z,93526.28
2023-06-28T09:43:42.270Z,93527.22
2023-06-28T09:44:38.836Z,93527.66
2023-06-28T09:45:39.059Z,93526.78
2023-06-28T09:46:36.285Z,93532.84
2023-06-28T09:47:33.233Z,93526.53
2023-06-28T09:48:36.859Z,93525.13
2023-06-28T09:49:33.389Z,93527.09
2023-06-28T09:50:38.025Z,93533.38
2023-06-28T09:51:34.591Z,93525.66
2023-06-28T09:52:35.990Z,93530.78
2023-06-28T09:53:33.550Z,93530.53
2023-06-28T09:54:30.882Z,93536.88
2023-06-28T09:55:27.419Z,93527.03
2023-06-28T09:56:35.179Z,93520.38
2023-06-28T09:57:33.116Z,93526.50
2023-06-28T09:58:31.248Z,93522.47
2023-06-28T09:59:35.534Z,93523.50
2023-06-28T10:00:33.147Z,93521.72
2023-06-28T10:01:30.271Z,93523.94
2023-06-28T10:02:28.300Z,93524.59
2023-06-28T10:03:25.708Z,93518.00
2023-06-28T10:04:22.935Z,93525.59
2023-06-28T10:05:19.804Z,93517.56
2023-06-28T10:06:16.394Z,93515.38
2023-06-28T10:07:13.795Z,93522.84
2023-06-28T10:08:11.545Z,93524.13
2023-06-28T10:09:08.398Z,93521.78
2023-06-28T10:10:05.494Z,93519.97
2023-06-28T10:11:03.312Z,93515.91
2023-06-28T10:12:01.494Z,93517.19
2023-06-28T10:12:59.403Z,93522.25
2023-06-28T10:13:56.707Z,93512.81
2023-06-28T10:14:59.566Z,93509.41
2023-06-28T10:16:02.607Z,93514.09
2023-06-28T10:17:00.577Z,93445.94
2023-06-28T10:17:57.150Z,93515.66
2023-06-28T10:18:54.270Z,93508.06
2023-06-28T10:19:50.949Z,93511.72
2023-06-28T10:20:48.565Z,93509.34
2023-06-28T10:21:45.431Z,93515.34
2023-06-28T10:22:42.287Z,93512.06
2023-06-28T10:23:40.384Z,93509.22
2023-06-28T10:24:37.565Z,93514.41
2023-06-28T10:25:34.162Z,93512.81
2023-06-28T10:26:31.665Z,93514.47
2023-06-28T10:27:28.937Z,93518.38
2023-06-28T10:28:28.550Z,93511.47
2023-06-28T10:29:25.165Z,93516.88
2023-06-28T10:30:22.312Z,93514.38
2023-06-28T10:31:19.243Z,93508.13
2023-06-28T10:32:16.167Z,93504.91
2023-06-28T10:33:18.942Z,93509.28
2023-06-28T10:34:15.959Z,93513.03
2023-06-28T10:35:12.749Z,93511.13
2023-06-28T10:36:09.300Z,93513.94
2023-06-28T10:37:06.167Z,93508.41
2023-06-28T10:38:03.081Z,93515.00
2023-06-28T10:38:59.634Z,93511.41
2023-06-28T10:39:56.326Z,93518.53
2023-06-28T10:40:53.135Z,93510.97
2023-06-28T10:41:58.911Z,93511.25
2023-06-28T10:42:55.550Z,93511.47
2023-06-28T10:44:02.715Z,93511.03
2023-06-28T10:44:59.302Z,93499.31
2023-06-28T10:45:55.858Z,93514.41
2023-06-28T10:47:08.622Z,93512.50
2023-06-28T10:48:05.604Z,93508.56
2023-06-28T10:49:04.637Z,93508.94
2023-06-28T10:50:15.926Z,93514.06
2023-06-28T10:51:14.600Z,93512.06
2023-06-28T10:52:14.860Z,93516.09
2023-06-28T10:53:22.163Z,93511.13
2023-06-28T10:54:18.734Z,93510.97
2023-06-28T10:55:21.124Z,93510.50
2023-06-28T10:56:19.569Z,93516.06
2023-06-28T10:57:16.135Z,93507.09
2023-06-28T10:58:12.912Z,93522.75
2023-06-28T10:59:09.546Z,93505.84
2023-06-28T11:00:12.648Z,93509.41
2023-06-28T11:01:10.582Z,93500.78
2023-06-28T11:02:07.222Z,93518.19
2023-06-28T11:03:06.945Z,93500.97
2023-06-28T11:04:19.159Z,93501.53
2023-06-28T11:05:35.831Z,93497.13
2023-06-28T11:06:32.401Z,93497.38
2023-06-28T11:07:30.288Z,93501.63
2023-06-28T11:08:38.543Z,93497.59
2023-06-28T11:09:35.456Z,93507.13
2023-06-28T11:10:39.058Z,93500.00
2023-06-28T11:11:36.603Z,93499.66
2023-06-28T11:12:33.205Z,93502.38
2023-06-28T11:13:35.465Z,93515.94
2023-06-28T11:14:32.821Z,93507.53